sensor_id;sensor_type;location;lat;lon;timestamp;pressure;altitude;pressure_sealevel;temperature;humidity
50226;BME280;36113;50.742;6.432;2023-06-19T00:00:16;98150.63;;;20.19;54.30
50226;BME280;36113;50.742;6.432;2023-06-19T00:02:43;98151.97;;;20.25;54.08
50226;BME280;36113;50.742;6.432;2023-06-19T00:05:09;98119.88;;;20.05;53.64
50226;BME280;36113;50.742;6.432;2023-06-19T00:07:36;98153.78;;;20.34;52.97
50226;BME280;36113;50.742;6.432;2023-06-19T00:10:02;98157.34;;;20.34;53.10
50226;BME280;36113;50.742;6.432;2023-06-19T00:12:27;98151.94;;;20.38;53.08
50226;BME280;36113;50.742;6.432;2023-06-19T00:14:52;98120.63;;;20.18;52.88
50226;BME280;36113;50.742;6.432;2023-06-19T00:17:18;98131.50;;;20.26;52.81
50226;BME280;36113;50.742;6.432;2023-06-19T00:19:43;98146.84;;;20.40;52.84
50226;BME280;36113;50.742;6.432;2023-06-19T00:22:09;98156.38;;;20.42;52.46
50226;BME280;36113;50.742;6.432;2023-06-19T00:24:34;98147.31;;;20.42;52.61
50226;BME280;36113;50.742;6.432;2023-06-19T00:26:59;98078.75;;;20.00;52.47
50226;BME280;36113;50.742;6.432;2023-06-19T00:29:29;98154.41;;;20.43;52.58
50226;BME280;36113;50.742;6.432;2023-06-19T00:31:54;98168.69;;;20.45;53.28
50226;BME280;36113;50.742;6.432;2023-06-19T00:34:19;98153.91;;;20.37;52.74
50226;BME280;36113;50.742;6.432;2023-06-19T00:36:45;98128.41;;;20.28;52.49
50226;BME280;36113;50.742;6.432;2023-06-19T00:39:10;98161.31;;;20.49;52.53
50226;BME280;36113;50.742;6.432;2023-06-19T00:41:36;98151.88;;;20.50;52.25
50226;BME280;36113;50.742;6.432;2023-06-19T00:44:02;98163.44;;;20.56;51.92
50226;BME280;36113;50.742;6.432;2023-06-19T00:46:28;98133.31;;;20.35;51.91
50226;BME280;36113;50.742;6.432;2023-06-19T00:48:53;98172.31;;;20.61;51.57
50226;BME280;36113;50.742;6.432;2023-06-19T00:51:18;98178.72;;;20.65;51.88
50226;BME280;36113;50.742;6.432;2023-06-19T00:53:44;98181.94;;;20.67;51.03
50226;BME280;36113;50.742;6.432;2023-06-19T00:56:09;98150.25;;;20.49;51.42
50226;BME280;36113;50.742;6.432;2023-06-19T00:58:35;98177.75;;;20.74;51.52
50226;BME280;36113;50.742;6.432;2023-06-19T01:01:00;98145.63;;;20.53;51.14
50226;BME280;36113;50.742;6.432;2023-06-19T01:03:26;98142.16;;;20.56;51.40
50226;BME280;36113;50.742;6.432;2023-06-19T01:05:53;98160.22;;;20.66;51.43
50226;BME280;36113;50.742;6.432;2023-06-19T01:09:17;98143.81;;;20.57;51.78
50226;BME280;36113;50.742;6.432;2023-06-19T01:11:27;98163.31;;;20.64;51.59
50226;BME280;36113;50.742;6.432;2023-06-19T01:14:00;98141.06;;;20.45;51.81
50226;BME280;36113;50.742;6.432;2023-06-19T01:16:29;98172.66;;;20.60;51.92
50226;BME280;36113;50.742;6.432;2023-06-19T01:18:55;98102.56;;;20.20;51.78
50226;BME280;36113;50.742;6.432;2023-06-19T01:21:21;98147.31;;;20.42;52.06
50226;BME280;36113;50.742;6.432;2023-06-19T01:23:46;98129.56;;;20.27;52.23
50226;BME280;36113;50.742;6.432;2023-06-19T01:26:12;98137.56;;;20.32;52.04
50226;BME280;36113;50.742;6.432;2023-06-19T01:28:40;98177.06;;;20.49;52.29
50226;BME280;36113;50.742;6.432;2023-06-19T01:31:11;98173.84;;;20.46;52.28
50226;BME280;36113;50.742;6.432;2023-06-19T01:33:37;98163.41;;;20.40;52.67
50226;BME280;36113;50.742;6.432;2023-06-19T01:36:04;98172.38;;;20.37;53.03
50226;BME280;36113;50.742;6.432;2023-06-19T01:38:31;98145.13;;;20.19;52.96
50226;BME280;36113;50.742;6.432;2023-06-19T01:40:56;98177.25;;;20.27;53.80
50226;BME280;36113;50.742;6.432;2023-06-19T01:43:24;98157.09;;;20.11;53.85
50226;BME280;36113;50.742;6.432;2023-06-19T01:45:50;98158.94;;;20.07;54.15
50226;BME280;36113;50.742;6.432;2023-06-19T01:48:15;98181.88;;;20.23;54.11
50226;BME280;36113;50.742;6.432;2023-06-19T01:50:50;98184.22;;;20.21;54.35
50226;BME280;36113;50.742;6.432;2023-06-19T01:53:15;98193.50;;;20.17;54.69
50226;BME280;36113;50.742;6.432;2023-06-19T01:55:41;98198.59;;;20.15;54.34
50226;BME280;36113;50.742;6.432;2023-06-19T01:58:07;98191.00;;;20.12;54.98
50226;BME280;36113;50.742;6.432;2023-06-19T02:00:32;98195.03;;;20.14;54.59
50226;BME280;36113;50.742;6.432;2023-06-19T02:03:01;98164.06;;;19.93;54.86
50226;BME280;36113;50.742;6.432;2023-06-19T02:05:26;98181.63;;;20.00;54.88
50226;BME280;36113;50.742;6.432;2023-06-19T02:07:51;98207.03;;;20.06;55.07
50226;BME280;36113;50.742;6.432;2023-06-19T02:10:16;98211.97;;;20.00;55.48
50226;BME280;36113;50.742;6.432;2023-06-19T02:12:42;98190.28;;;19.87;55.72
50226;BME280;36113;50.742;6.432;2023-06-19T02:15:07;98200.06;;;19.84;55.68
50226;BME280;36113;50.742;6.432;2023-06-19T02:17:33;98182.56;;;19.68;56.20
50226;BME280;36113;50.742;6.432;2023-06-19T02:19:58;98206.72;;;19.83;56.33
50226;BME280;36113;50.742;6.432;2023-06-19T02:22:24;98211.22;;;19.75;56.08
50226;BME280;36113;50.742;6.432;2023-06-19T02:24:49;98173.66;;;19.46;56.59
50226;BME280;36113;50.742;6.432;2023-06-19T02:27:14;98216.28;;;19.73;56.63
50226;BME280;36113;50.742;6.432;2023-06-19T02:29:41;98227.97;;;19.70;57.27
50226;BME280;36113;50.742;6.432;2023-06-19T02:32:06;98216.59;;;19.59;57.83
50226;BME280;36113;50.742;6.432;2023-06-19T02:34:32;98206.50;;;19.39;57.65
50226;BME280;36113;50.742;6.432;2023-06-19T02:36:57;98221.66;;;19.57;57.75
50226;BME280;36113;50.742;6.432;2023-06-19T02:39:23;98231.06;;;19.56;58.16
50226;BME280;36113;50.742;6.432;2023-06-19T02:41:48;98240.13;;;19.57;58.03
50226;BME280;36113;50.742;6.432;2023-06-19T02:44:14;98248.19;;;19.50;58.35
50226;BME280;36113;50.742;6.432;2023-06-19T02:46:39;98232.78;;;19.36;58.35
50226;BME280;36113;50.742;6.432;2023-06-19T02:49:05;98241.06;;;19.36;58.41
50226;BME280;36113;50.742;6.432;2023-06-19T02:51:30;98252.09;;;19.36;58.80
50226;BME280;36113;50.742;6.432;2023-06-19T02:53:55;98249.56;;;19.31;58.84
50226;BME280;36113;50.742;6.432;2023-06-19T02:56:21;98266.31;;;19.26;59.20
50226;BME280;36113;50.742;6.432;2023-06-19T02:58:47;98267.00;;;19.23;59.28
50226;BME280;36113;50.742;6.432;2023-06-19T03:01:12;98275.34;;;19.14;59.52
50226;BME280;36113;50.742;6.432;2023-06-19T03:03:38;98266.72;;;19.03;59.89
50226;BME280;36113;50.742;6.432;2023-06-19T03:06:07;98283.72;;;19.06;60.09
50226;BME280;36113;50.742;6.432;2023-06-19T03:08:37;98219.16;;;18.49;60.31
50226;BME280;36113;50.742;6.432;2023-06-19T03:11:03;98286.06;;;18.83;61.04
50226;BME280;36113;50.742;6.432;2023-06-19T03:13:54;98287.38;;;18.76;61.12
50226;BME280;36113;50.742;6.432;2023-06-19T03:16:20;98283.59;;;18.69;61.45
50226;BME280;36113;50.742;6.432;2023-06-19T03:18:46;98290.03;;;18.52;61.72
50226;BME280;36113;50.742;6.432;2023-06-19T03:21:15;98295.41;;;18.48;62.22
50226;BME280;36113;50.742;6.432;2023-06-19T03:23:40;98300.81;;;18.57;61.97
50226;BME280;36113;50.742;6.432;2023-06-19T03:26:07;98291.56;;;18.61;61.75
50226;BME280;36113;50.742;6.432;2023-06-19T03:28:32;98266.09;;;18.31;62.70
50226;BME280;36113;50.742;6.432;2023-06-19T03:30:58;98298.81;;;18.45;62.73
50226;BME280;36113;50.742;6.432;2023-06-19T03:33:23;98276.75;;;18.33;63.01
50226;BME280;36113;50.742;6.432;2023-06-19T03:35:49;98321.25;;;18.56;63.65
50226;BME280;36113;50.742;6.432;2023-06-19T03:38:14;98332.13;;;18.52;63.70
50226;BME280;36113;50.742;6.432;2023-06-19T03:40:39;98329.44;;;18.44;64.19
50226;BME280;36113;50.742;6.432;2023-06-19T03:43:05;98325.72;;;18.39;64.58
50226;BME280;36113;50.742;6.432;2023-06-19T03:45:30;98300.50;;;18.16;64.87
50226;BME280;36113;50.742;6.432;2023-06-19T03:47:55;98328.69;;;18.34;65.39
50226;BME280;36113;50.742;6.432;2023-06-19T03:50:21;98341.19;;;18.32;65.58
50226;BME280;36113;50.742;6.432;2023-06-19T03:52:46;98349.75;;;18.30;65.92
50226;BME280;36113;50.742;6.432;2023-06-19T03:55:11;98348.09;;;18.38;65.65
50226;BME280;36113;50.742;6.432;2023-06-19T03:57:37;98329.56;;;18.26;65.81
50226;BME280;36113;50.742;6.432;2023-06-19T04:00:02;98349.97;;;18.46;65.73
50226;BME280;36113;50.742;6.432;2023-06-19T04:02:32;98361.38;;;18.57;65.32
50226;BME280;36113;50.742;6.432;2023-06-19T04:04:58;98336.56;;;18.45;65.29
50226;BME280;36113;50.742;6.432;2023-06-19T04:07:23;98373.59;;;18.68;65.09
50226;BME280;36113;50.742;6.432;2023-06-19T04:09:48;98371.47;;;18.74;64.50
50226;BME280;36113;50.742;6.432;2023-06-19T04:12:14;98379.56;;;18.79;64.33
50226;BME280;36113;50.742;6.432;2023-06-19T04:14:39;98346.81;;;18.56;65.03
50226;BME280;36113;50.742;6.432;2023-06-19T04:17:04;98391.44;;;18.71;65.55
50226;BME280;36113;50.742;6.432;2023-06-19T04:19:30;98392.22;;;18.71;65.55
50226;BME280;36113;50.742;6.432;2023-06-19T04:21:55;98384.63;;;18.68;65.61
50226;BME280;36113;50.742;6.432;2023-06-19T04:24:20;98396.06;;;18.79;65.49
50226;BME280;36113;50.742;6.432;2023-06-19T04:26:46;98385.56;;;18.72;66.12
50226;BME280;36113;50.742;6.432;2023-06-19T04:29:14;98274.25;;;17.98;66.22
50226;BME280;36113;50.742;6.432;2023-06-19T04:31:43;98332.59;;;18.33;66.77
50226;BME280;36113;50.742;6.432;2023-06-19T04:34:12;98392.19;;;18.80;66.58
50226;BME280;36113;50.742;6.432;2023-06-19T04:36:37;98391.84;;;18.81;66.69
50226;BME280;36113;50.742;6.432;2023-06-19T04:39:02;98401.19;;;18.89;67.00
50226;BME280;36113;50.742;6.432;2023-06-19T04:41:28;98402.13;;;18.93;66.88
50226;BME280;36113;50.742;6.432;2023-06-19T04:43:53;98377.94;;;18.78;67.28
50226;BME280;36113;50.742;6.432;2023-06-19T04:46:18;98409.22;;;18.94;67.67
50226;BME280;36113;50.742;6.432;2023-06-19T04:48:45;98386.72;;;18.92;67.37
50226;BME280;36113;50.742;6.432;2023-06-19T04:51:16;98413.34;;;19.09;67.21
50226;BME280;36113;50.742;6.432;2023-06-19T04:53:45;98404.28;;;19.09;67.56
50226;BME280;36113;50.742;6.432;2023-06-19T04:56:10;98366.50;;;18.88;66.89
50226;BME280;36113;50.742;6.432;2023-06-19T04:58:36;98410.50;;;19.18;67.09
50226;BME280;36113;50.742;6.432;2023-06-19T05:01:01;98408.78;;;19.26;66.92
50226;BME280;36113;50.742;6.432;2023-06-19T05:03:26;98402.25;;;19.30;66.30
50226;BME280;36113;50.742;6.432;2023-06-19T05:05:51;98413.81;;;19.44;66.20
50226;BME280;36113;50.742;6.432;2023-06-19T05:08:17;98408.88;;;19.50;66.06
50226;BME280;36113;50.742;6.432;2023-06-19T05:10:42;98421.44;;;19.60;65.79
50226;BME280;36113;50.742;6.432;2023-06-19T05:13:08;98407.19;;;19.58;65.57
50226;BME280;36113;50.742;6.432;2023-06-19T05:15:33;98416.38;;;19.62;64.77
50226;BME280;36113;50.742;6.432;2023-06-19T05:17:58;98423.44;;;19.72;64.61
50226;BME280;36113;50.742;6.432;2023-06-19T05:20:24;98409.31;;;19.73;64.19
50226;BME280;36113;50.742;6.432;2023-06-19T05:22:49;98419.69;;;19.89;63.73
50226;BME280;36113;50.742;6.432;2023-06-19T05:25:14;98407.25;;;19.82;63.08
50226;BME280;36113;50.742;6.432;2023-06-19T05:27:39;98411.97;;;19.82;63.08
50226;BME280;36113;50.742;6.432;2023-06-19T05:30:05;98404.47;;;19.70;63.34
50226;BME280;36113;50.742;6.432;2023-06-19T05:32:31;98372.28;;;19.62;62.79
50226;BME280;36113;50.742;6.432;2023-06-19T05:34:56;98419.00;;;19.92;62.42
50226;BME280;36113;50.742;6.432;2023-06-19T05:37:21;98416.59;;;20.02;60.97
50226;BME280;36113;50.742;6.432;2023-06-19T05:39:48;98404.53;;;20.07;60.44
50226;BME280;36113;50.742;6.432;2023-06-19T05:42:13;98424.50;;;20.41;59.87
50226;BME280;36113;50.742;6.432;2023-06-19T05:44:38;98402.56;;;20.44;59.21
50226;BME280;36113;50.742;6.432;2023-06-19T05:47:05;98408.19;;;20.60;58.53
50226;BME280;36113;50.742;6.432;2023-06-19T05:49:30;98378.28;;;20.50;57.63
50226;BME280;36113;50.742;6.432;2023-06-19T05:51:56;98413.97;;;20.96;57.18
50226;BME280;36113;50.742;6.432;2023-06-19T05:54:24;98408.31;;;21.04;56.34
50226;BME280;36113;50.742;6.432;2023-06-19T05:56:49;98413.19;;;21.23;55.98
50226;BME280;36113;50.742;6.432;2023-06-19T05:59:15;98400.09;;;21.36;55.28
50226;BME280;36113;50.742;6.432;2023-06-19T06:01:41;98391.53;;;21.54;55.31
50226;BME280;36113;50.742;6.432;2023-06-19T06:04:06;98333.28;;;21.34;53.43
50226;BME280;36113;50.742;6.432;2023-06-19T06:06:31;98370.69;;;21.72;53.66
50226;BME280;36113;50.742;6.432;2023-06-19T06:08:56;98406.56;;;22.16;53.43
50226;BME280;36113;50.742;6.432;2023-06-19T06:11:22;98416.13;;;22.35;52.36
50226;BME280;36113;50.742;6.432;2023-06-19T06:13:47;98418.34;;;22.13;52.03
50226;BME280;36113;50.742;6.432;2023-06-19T06:16:13;98431.09;;;22.02;52.65
50226;BME280;36113;50.742;6.432;2023-06-19T06:18:39;98393.72;;;21.92;53.04
50226;BME280;36113;50.742;6.432;2023-06-19T06:21:04;98420.59;;;22.23;52.74
50226;BME280;36113;50.742;6.432;2023-06-19T06:23:29;98356.56;;;21.93;52.29
50226;BME280;36113;50.742;6.432;2023-06-19T06:25:55;98394.31;;;22.33;51.81
50226;BME280;36113;50.742;6.432;2023-06-19T06:28:26;98431.53;;;22.67;51.58
50226;BME280;36113;50.742;6.432;2023-06-19T06:30:51;98438.94;;;22.63;51.76
50226;BME280;36113;50.742;6.432;2023-06-19T06:33:17;98448.94;;;22.68;52.07
50226;BME280;36113;50.742;6.432;2023-06-19T06:35:42;98443.41;;;22.68;51.72
50226;BME280;36113;50.742;6.432;2023-06-19T06:38:09;98438.66;;;22.68;51.79
50226;BME280;36113;50.742;6.432;2023-06-19T06:40:34;98457.66;;;22.86;51.79
50226;BME280;36113;50.742;6.432;2023-06-19T06:43:00;98456.81;;;22.66;51.86
50226;BME280;36113;50.742;6.432;2023-06-19T06:45:25;98463.19;;;22.50;52.11
50226;BME280;36113;50.742;6.432;2023-06-19T06:47:50;98444.72;;;22.23;52.23
50226;BME280;36113;50.742;6.432;2023-06-19T06:50:16;98440.81;;;22.11;52.52
50226;BME280;36113;50.742;6.432;2023-06-19T06:52:41;98476.44;;;22.25;52.90
50226;BME280;36113;50.742;6.432;2023-06-19T06:55:07;98490.97;;;22.22;53.07
50226;BME280;36113;50.742;6.432;2023-06-19T06:57:32;98489.25;;;22.18;53.01
50226;BME280;36113;50.742;6.432;2023-06-19T06:59:57;98439.22;;;21.95;53.47
50226;BME280;36113;50.742;6.432;2023-06-19T07:02:23;98436.63;;;22.02;53.04
50226;BME280;36113;50.742;6.432;2023-06-19T07:04:49;98469.88;;;22.34;52.28
50226;BME280;36113;50.742;6.432;2023-06-19T07:07:14;98449.22;;;22.15;52.53
50226;BME280;36113;50.742;6.432;2023-06-19T07:09:40;98477.31;;;22.29;52.36
50226;BME280;36113;50.742;6.432;2023-06-19T07:12:05;98452.53;;;22.05;52.10
50226;BME280;36113;50.742;6.432;2023-06-19T07:14:32;98454.84;;;22.03;52.00
50226;BME280;36113;50.742;6.432;2023-06-19T07:16:57;98493.50;;;22.27;51.86
50226;BME280;36113;50.742;6.432;2023-06-19T07:19:23;98451.09;;;21.95;52.51
50226;BME280;36113;50.742;6.432;2023-06-19T07:21:50;98483.91;;;22.25;51.81
50226;BME280;36113;50.742;6.432;2023-06-19T07:24:16;98498.22;;;22.43;51.82
50226;BME280;36113;50.742;6.432;2023-06-19T07:26:41;98479.53;;;22.40;51.16
50226;BME280;36113;50.742;6.432;2023-06-19T07:29:06;98519.91;;;22.72;51.41
50226;BME280;36113;50.742;6.432;2023-06-19T07:31:32;98489.50;;;22.60;51.53
50226;BME280;36113;50.742;6.432;2023-06-19T07:33:57;98487.66;;;22.48;51.11
50226;BME280;36113;50.742;6.432;2023-06-19T07:36:22;98507.03;;;22.48;50.83
50226;BME280;36113;50.742;6.432;2023-06-19T07:38:48;98505.34;;;22.44;50.87
50226;BME280;36113;50.742;6.432;2023-06-19T07:41:13;98486.03;;;22.31;50.94
50226;BME280;36113;50.742;6.432;2023-06-19T07:43:38;98509.03;;;22.48;51.25
50226;BME280;36113;50.742;6.432;2023-06-19T07:46:04;98507.84;;;22.49;50.81
50226;BME280;36113;50.742;6.432;2023-06-19T07:48:29;98520.53;;;22.50;50.52
50226;BME280;36113;50.742;6.432;2023-06-19T07:50:55;98504.81;;;22.38;50.71
50226;BME280;36113;50.742;6.432;2023-06-19T07:53:21;98523.03;;;22.55;50.85
50226;BME280;36113;50.742;6.432;2023-06-19T07:55:46;98523.94;;;22.59;50.76
50226;BME280;36113;50.742;6.432;2023-06-19T07:58:12;98509.09;;;22.67;50.75
50226;BME280;36113;50.742;6.432;2023-06-19T08:00:37;98502.72;;;22.67;49.90
50226;BME280;36113;50.742;6.432;2023-06-19T08:03:03;98526.19;;;23.21;49.08
50226;BME280;36113;50.742;6.432;2023-06-19T08:05:28;98498.22;;;23.49;48.29
50226;BME280;36113;50.742;6.432;2023-06-19T08:07:53;98502.31;;;23.55;47.13
50226;BME280;36113;50.742;6.432;2023-06-19T08:10:18;98523.41;;;23.60;46.90
50226;BME280;36113;50.742;6.432;2023-06-19T08:12:44;98516.06;;;23.67;47.73
50226;BME280;36113;50.742;6.432;2023-06-19T08:15:11;98453.69;;;23.42;47.30
50226;BME280;36113;50.742;6.432;2023-06-19T08:17:36;98505.66;;;24.03;47.76
50226;BME280;36113;50.742;6.432;2023-06-19T08:20:02;98499.06;;;24.11;46.53
50226;BME280;36113;50.742;6.432;2023-06-19T08:22:30;98511.03;;;24.38;46.12
50226;BME280;36113;50.742;6.432;2023-06-19T08:24:55;98478.44;;;24.12;46.26
50226;BME280;36113;50.742;6.432;2023-06-19T08:27:21;98484.91;;;24.43;46.36
50226;BME280;36113;50.742;6.432;2023-06-19T08:29:46;98518.66;;;24.65;45.81
50226;BME280;36113;50.742;6.432;2023-06-19T08:32:11;98488.25;;;24.06;45.48
50226;BME280;36113;50.742;6.432;2023-06-19T08:34:36;98493.19;;;23.74;45.84
50226;BME280;36113;50.742;6.432;2023-06-19T08:37:03;98493.06;;;23.47;46.40
50226;BME280;36113;50.742;6.432;2023-06-19T08:39:29;98496.50;;;23.60;47.27
50226;BME280;36113;50.742;6.432;2023-06-19T08:41:54;98513.66;;;24.08;46.71
50226;BME280;36113;50.742;6.432;2023-06-19T08:44:19;98484.91;;;23.97;45.66
50226;BME280;36113;50.742;6.432;2023-06-19T08:46:45;98501.28;;;24.25;46.29
50226;BME280;36113;50.742;6.432;2023-06-19T08:49:10;98550.34;;;24.60;45.96
50226;BME280;36113;50.742;6.432;2023-06-19T08:51:36;98531.84;;;24.48;45.80
50226;BME280;36113;50.742;6.432;2023-06-19T08:54:03;98538.56;;;24.70;45.10
50226;BME280;36113;50.742;6.432;2023-06-19T08:56:30;98548.00;;;24.89;43.92
50226;BME280;36113;50.742;6.432;2023-06-19T08:59:08;98539.50;;;24.78;43.90
50226;BME280;36113;50.742;6.432;2023-06-19T09:01:34;98539.69;;;24.89;44.50
50226;BME280;36113;50.742;6.432;2023-06-19T09:03:59;98539.72;;;25.19;44.29
50226;BME280;36113;50.742;6.432;2023-06-19T09:06:25;98540.47;;;25.43;43.14
50226;BME280;36113;50.742;6.432;2023-06-19T09:08:59;98537.53;;;25.32;42.34
50226;BME280;36113;50.742;6.432;2023-06-19T09:11:25;98551.53;;;25.39;42.76
50226;BME280;36113;50.742;6.432;2023-06-19T09:13:56;98542.38;;;25.38;42.55
50226;BME280;36113;50.742;6.432;2023-06-19T09:16:21;98552.25;;;25.63;42.27
50226;BME280;36113;50.742;6.432;2023-06-19T09:18:48;98519.84;;;25.47;42.96
50226;BME280;36113;50.742;6.432;2023-06-19T09:21:20;98542.84;;;25.74;42.31
50226;BME280;36113;50.742;6.432;2023-06-19T09:23:48;98514.56;;;25.72;42.48
50226;BME280;36113;50.742;6.432;2023-06-19T09:26:16;98546.75;;;26.04;40.74
50226;BME280;36113;50.742;6.432;2023-06-19T09:28:43;98543.59;;;26.01;40.92
50226;BME280;36113;50.742;6.432;2023-06-19T09:31:08;98504.19;;;25.99;41.25
50226;BME280;36113;50.742;6.432;2023-06-19T09:33:34;98547.72;;;26.15;39.58
50226;BME280;36113;50.742;6.432;2023-06-19T09:38:34;98523.47;;;25.85;41.59
50226;BME280;36113;50.742;6.432;2023-06-19T09:41:02;98545.94;;;25.99;40.23
50226;BME280;36113;50.742;6.432;2023-06-19T09:43:38;98552.88;;;26.16;40.74
50226;BME280;36113;50.742;6.432;2023-06-19T09:46:04;98556.50;;;26.20;40.08
50226;BME280;36113;50.742;6.432;2023-06-19T09:48:33;98540.63;;;26.25;39.76
50226;BME280;36113;50.742;6.432;2023-06-19T09:51:05;98539.91;;;26.31;40.16
50226;BME280;36113;50.742;6.432;2023-06-19T09:53:32;98538.47;;;26.48;41.23
50226;BME280;36113;50.742;6.432;2023-06-19T09:55:58;98542.47;;;26.51;38.53
50226;BME280;36113;50.742;6.432;2023-06-19T09:58:24;98520.81;;;26.33;38.56
50226;BME280;36113;50.742;6.432;2023-06-19T10:00:50;98547.47;;;26.34;38.34
50226;BME280;36113;50.742;6.432;2023-06-19T10:03:16;98537.78;;;26.17;38.70
50226;BME280;36113;50.742;6.432;2023-06-19T10:05:42;98551.41;;;26.26;39.39
50226;BME280;36113;50.742;6.432;2023-06-19T10:08:07;98552.00;;;26.50;40.39
50226;BME280;36113;50.742;6.432;2023-06-19T10:10:33;98546.94;;;26.59;38.57
50226;BME280;36113;50.742;6.432;2023-06-19T10:13:11;98560.63;;;26.78;38.31
50226;BME280;36113;50.742;6.432;2023-06-19T10:15:40;98528.47;;;26.92;38.96
50226;BME280;36113;50.742;6.432;2023-06-19T10:18:07;98537.78;;;27.10;38.83
50226;BME280;36113;50.742;6.432;2023-06-19T10:20:34;98517.38;;;27.02;37.51
50226;BME280;36113;50.742;6.432;2023-06-19T10:23:06;98554.13;;;27.15;37.71
50226;BME280;36113;50.742;6.432;2023-06-19T10:25:41;98509.72;;;26.89;37.39
50226;BME280;36113;50.742;6.432;2023-06-19T10:28:30;98537.69;;;27.03;37.60
50226;BME280;36113;50.742;6.432;2023-06-19T10:33:24;98543.00;;;27.19;37.78
50226;BME280;36113;50.742;6.432;2023-06-19T10:35:49;98501.41;;;26.96;38.09
50226;BME280;36113;50.742;6.432;2023-06-19T10:38:16;98531.81;;;27.15;37.49
50226;BME280;36113;50.742;6.432;2023-06-19T10:40:42;98504.63;;;27.05;37.17
50226;BME280;36113;50.742;6.432;2023-06-19T10:43:08;98538.59;;;27.18;36.16
50226;BME280;36113;50.742;6.432;2023-06-19T10:45:33;98490.63;;;26.94;36.46
50226;BME280;36113;50.742;6.432;2023-06-19T10:48:01;98539.94;;;27.38;36.32
50226;BME280;36113;50.742;6.432;2023-06-19T10:50:33;98508.00;;;27.29;35.59
50226;BME280;36113;50.742;6.432;2023-06-19T10:52:59;98532.69;;;27.27;36.04
50226;BME280;36113;50.742;6.432;2023-06-19T10:55:24;98524.38;;;27.30;35.67
50226;BME280;36113;50.742;6.432;2023-06-19T10:57:50;98500.84;;;27.35;34.98
50226;BME280;36113;50.742;6.432;2023-06-19T11:02:49;98521.75;;;27.73;35.32
50226;BME280;36113;50.742;6.432;2023-06-19T11:05:14;98509.38;;;27.71;35.53
50226;BME280;36113;50.742;6.432;2023-06-19T11:07:40;98452.69;;;27.52;35.45
50226;BME280;36113;50.742;6.432;2023-06-19T11:10:06;98517.88;;;28.10;35.90
50226;BME280;36113;50.742;6.432;2023-06-19T11:12:32;98528.75;;;28.47;35.81
50226;BME280;36113;50.742;6.432;2023-06-19T11:14:58;98533.47;;;28.22;35.25
50226;BME280;36113;50.742;6.432;2023-06-19T11:17:24;98507.41;;;27.75;35.89
50226;BME280;36113;50.742;6.432;2023-06-19T11:19:50;98515.19;;;27.33;36.08
50226;BME280;36113;50.742;6.432;2023-06-19T11:22:16;98518.50;;;27.57;36.42
50226;BME280;36113;50.742;6.432;2023-06-19T11:24:45;98500.09;;;27.45;36.83
50226;BME280;36113;50.742;6.432;2023-06-19T11:27:20;98517.78;;;27.74;36.07
50226;BME280;36113;50.742;6.432;2023-06-19T11:29:56;98520.66;;;28.06;35.38
50226;BME280;36113;50.742;6.432;2023-06-19T11:32:24;98511.47;;;27.99;35.36
50226;BME280;36113;50.742;6.432;2023-06-19T11:34:56;98521.91;;;28.23;34.76
50226;BME280;36113;50.742;6.432;2023-06-19T11:37:21;98509.19;;;28.47;34.59
50226;BME280;36113;50.742;6.432;2023-06-19T11:39:48;98520.75;;;28.60;34.80
50226;BME280;36113;50.742;6.432;2023-06-19T11:42:17;98501.97;;;28.54;34.72
50226;BME280;36113;50.742;6.432;2023-06-19T11:44:55;98513.97;;;28.72;34.18
50226;BME280;36113;50.742;6.432;2023-06-19T11:47:22;98507.16;;;28.80;33.88
50226;BME280;36113;50.742;6.432;2023-06-19T11:49:48;98513.19;;;28.61;34.70
50226;BME280;36113;50.742;6.432;2023-06-19T11:52:15;98503.56;;;28.55;34.41
50226;BME280;36113;50.742;6.432;2023-06-19T11:54:40;98501.97;;;28.54;34.52
50226;BME280;36113;50.742;6.432;2023-06-19T11:57:06;98498.75;;;28.37;34.93
50226;BME280;36113;50.742;6.432;2023-06-19T11:59:31;98493.16;;;28.30;33.94
50226;BME280;36113;50.742;6.432;2023-06-19T12:01:56;98496.72;;;28.13;34.46
50226;BME280;36113;50.742;6.432;2023-06-19T12:04:24;98477.19;;;28.41;34.09
50226;BME280;36113;50.742;6.432;2023-06-19T12:06:49;98488.00;;;28.68;34.71
50226;BME280;36113;50.742;6.432;2023-06-19T12:09:14;98516.72;;;29.19;34.14
50226;BME280;36113;50.742;6.432;2023-06-19T12:11:40;98508.31;;;29.19;33.74
50226;BME280;36113;50.742;6.432;2023-06-19T12:14:05;98510.31;;;29.15;33.60
50226;BME280;36113;50.742;6.432;2023-06-19T12:16:31;98513.13;;;29.18;33.11
50226;BME280;36113;50.742;6.432;2023-06-19T12:18:56;98501.09;;;29.18;33.88
50226;BME280;36113;50.742;6.432;2023-06-19T12:21:21;98452.38;;;28.90;34.06
50226;BME280;36113;50.742;6.432;2023-06-19T12:23:47;98493.13;;;29.02;33.30
50226;BME280;36113;50.742;6.432;2023-06-19T12:26:13;98509.91;;;29.27;33.73
50226;BME280;36113;50.742;6.432;2023-06-19T12:28:38;98509.06;;;29.30;33.06
50226;BME280;36113;50.742;6.432;2023-06-19T12:31:03;98513.84;;;29.40;32.75
50226;BME280;36113;50.742;6.432;2023-06-19T12:33:29;98484.34;;;29.00;33.19
50226;BME280;36113;50.742;6.432;2023-06-19T12:35:58;98501.94;;;28.93;33.17
50226;BME280;36113;50.742;6.432;2023-06-19T12:38:23;98515.53;;;28.91;34.01
50226;BME280;36113;50.742;6.432;2023-06-19T12:40:49;98505.97;;;28.81;34.10
50226;BME280;36113;50.742;6.432;2023-06-19T12:43:14;98513.94;;;28.76;34.20
50226;BME280;36113;50.742;6.432;2023-06-19T12:45:40;98499.97;;;28.79;33.87
50226;BME280;36113;50.742;6.432;2023-06-19T12:48:06;98488.75;;;28.76;34.05
50226;BME280;36113;50.742;6.432;2023-06-19T12:50:31;98508.75;;;28.92;33.02
50226;BME280;36113;50.742;6.432;2023-06-19T12:52:57;98483.16;;;29.01;33.11
50226;BME280;36113;50.742;6.432;2023-06-19T12:55:22;98514.25;;;29.39;32.54
50226;BME280;36113;50.742;6.432;2023-06-19T12:57:47;98479.53;;;29.15;33.08
50226;BME280;36113;50.742;6.432;2023-06-19T13:00:13;98510.66;;;29.35;33.37
50226;BME280;36113;50.742;6.432;2023-06-19T13:02:39;98495.53;;;29.14;32.63